Time;durP1;ratioP1;P1;durP2;ratioP2;P2;SDS_P1;SDS_P2;PMS_P1;PMS_P2;Temp;Humidity;BMP_temperature;BMP_pressure;BME280_temperature;BME280_humidity;BME280_pressure;Samples;Min_cycle;Max_cycle;Signal;HPM_P1;HPM_P2
2021/12/19 00:01:26;;;;;;;41.47;16.30;;;;;;;;;;6213078;23;20159;-91
2021/12/19 00:04:41;;;;;;;40.27;16.77;;;;;;;;;;6212388;23;20170;-90
2021/12/19 00:11:10;;;;;;;41.67;16.30;;;;;;;;;;6216009;23;20159;-85
2021/12/19 00:14:15;;;;;;;40.67;16.30;;;;;;;;;;6214616;23;20183;-86
2021/12/19 00:17:23;;;;;;;46.07;15.37;;;;;;;;;;6213224;23;20526;-89
2021/12/19 00:20:29;;;;;;;39.90;17.03;;;;;;;;;;6213677;23;20163;-88
2021/12/19 00:23:34;;;;;;;40.87;16.07;;;;;;;;;;6215191;23;20162;-89
2021/12/19 00:26:40;;;;;;;40.77;16.97;;;;;;;;;;6213776;23;20166;-89
2021/12/19 00:29:45;;;;;;;55.53;17.83;;;;;;;;;;6212595;23;20187;-89
2021/12/19 00:32:50;;;;;;;46.93;18.00;;;;;;;;;;6217053;23;20388;-89
2021/12/19 00:35:57;;;;;;;45.73;18.63;;;;;;;;;;6215290;23;20673;-87
2021/12/19 00:39:03;;;;;;;50.90;17.73;;;;;;;;;;6216418;23;20163;-91
2021/12/19 00:42:08;;;;;;;49.40;18.73;;;;;;;;;;6216009;23;20243;-90
2021/12/19 00:45:24;;;;;;;55.57;19.53;;;;;;;;;;6214654;23;20159;-88
2021/12/19 00:48:29;;;;;;;51.97;18.33;;;;;;;;;;6214243;23;20195;-88
2021/12/19 00:51:36;;;;;;;46.40;18.27;;;;;;;;;;6212587;23;20726;-87
2021/12/19 00:54:41;;;;;;;46.23;17.97;;;;;;;;;;6212485;23;20175;-89
2021/12/19 00:57:46;;;;;;;46.97;18.40;;;;;;;;;;6211803;23;20236;-87
2021/12/19 01:00:52;;;;;;;47.50;17.83;;;;;;;;;;6230130;23;20171;-89
2021/12/19 01:03:57;;;;;;;46.40;19.33;;;;;;;;;;6210226;23;20218;-90
2021/12/19 01:07:03;;;;;;;47.50;17.73;;;;;;;;;;6211772;23;20167;-89
2021/12/19 01:10:10;;;;;;;53.43;20.20;;;;;;;;;;6211924;23;20195;-88
2021/12/19 01:13:20;;;;;;;46.83;17.07;;;;;;;;;;6211442;23;20167;-88
2021/12/19 01:16:25;;;;;;;49.53;19.70;;;;;;;;;;6209759;23;20195;-89
2021/12/19 01:19:30;;;;;;;56.37;19.23;;;;;;;;;;6209658;23;20247;-89
2021/12/19 01:22:37;;;;;;;52.23;19.37;;;;;;;;;;6209261;23;20218;-90
2021/12/19 01:25:47;;;;;;;51.13;19.03;;;;;;;;;;6216258;23;20183;-87
2021/12/19 01:28:52;;;;;;;48.83;18.37;;;;;;;;;;6213297;23;20175;-88
2021/12/19 01:31:58;;;;;;;48.67;18.77;;;;;;;;;;6214200;23;20215;-90
2021/12/19 01:35:03;;;;;;;48.10;18.43;;;;;;;;;;6212397;23;20163;-88
2021/12/19 01:38:09;;;;;;;52.10;18.43;;;;;;;;;;6212238;23;20430;-90
2021/12/19 01:41:14;;;;;;;59.70;20.43;;;;;;;;;;6213346;23;20241;-89
2021/12/19 01:44:19;;;;;;;51.30;18.87;;;;;;;;;;6213568;23;20171;-88
2021/12/19 01:47:24;;;;;;;59.53;19.30;;;;;;;;;;6213146;23;20199;-89
2021/12/19 01:50:33;;;;;;;50.07;17.83;;;;;;;;;;6212853;23;20191;-90
2021/12/19 01:53:39;;;;;;;45.93;18.07;;;;;;;;;;6212314;23;20167;-89
2021/12/19 01:56:44;;;;;;;45.27;16.10;;;;;;;;;;6211556;23;20227;-89
2021/12/19 01:59:49;;;;;;;50.03;17.97;;;;;;;;;;6215646;23;20244;-89
2021/12/19 02:02:54;;;;;;;56.03;18.70;;;;;;;;;;6211918;23;20591;-90
2021/12/19 02:05:59;;;;;;;47.63;16.67;;;;;;;;;;6211661;23;20183;-88
2021/12/19 02:09:07;;;;;;;50.87;18.97;;;;;;;;;;6213046;23;20178;-90
2021/12/19 02:12:12;;;;;;;50.57;19.60;;;;;;;;;;6214339;23;20166;-90
2021/12/19 02:15:19;;;;;;;52.10;19.07;;;;;;;;;;6212828;23;20638;-89
2021/12/19 02:18:24;;;;;;;55.07;20.40;;;;;;;;;;6212861;23;20249;-88
2021/12/19 02:21:31;;;;;;;49.90;19.40;;;;;;;;;;6211788;23;20174;-89
2021/12/19 02:24:36;;;;;;;47.73;16.77;;;;;;;;;;6211521;23;20171;-88
2021/12/19 02:27:41;;;;;;;54.00;19.93;;;;;;;;;;6211092;23;20170;-91
2021/12/19 02:30:46;;;;;;;53.53;17.83;;;;;;;;;;6208446;23;20314;-89
2021/12/19 02:34:02;;;;;;;54.03;18.97;;;;;;;;;;6212983;23;20147;-90
2021/12/19 02:37:21;;;;;;;56.47;20.53;;;;;;;;;;6210717;23;20203;-89
2021/12/19 02:40:39;;;;;;;56.20;20.70;;;;;;;;;;6210459;23;20179;-89
2021/12/19 02:50:37;;;;;;;62.70;21.83;;;;;;;;;;6211995;23;20178;-88
2021/12/19 02:53:44;;;;;;;64.43;22.17;;;;;;;;;;6230075;23;20174;-89
2021/12/19 02:56:50;;;;;;;65.70;21.53;;;;;;;;;;6213905;23;20175;-89
2021/12/19 02:59:55;;;;;;;64.47;21.43;;;;;;;;;;6212753;23;20175;-90
2021/12/19 03:03:01;;;;;;;68.27;23.87;;;;;;;;;;6211959;23;20179;-88
2021/12/19 03:06:05;;;;;;;66.33;23.50;;;;;;;;;;6212393;23;20166;-88
2021/12/19 03:09:13;;;;;;;70.53;25.20;;;;;;;;;;6212799;23;20191;-90
2021/12/19 03:12:30;;;;;;;72.90;24.60;;;;;;;;;;6210785;23;20241;-88
2021/12/19 03:18:59;;;;;;;75.43;25.53;;;;;;;;;;6211724;23;20213;-87
2021/12/19 03:22:04;;;;;;;75.43;24.70;;;;;;;;;;6213205;23;20624;-87
2021/12/19 03:25:11;;;;;;;77.40;24.53;;;;;;;;;;6212489;23;20306;-89
2021/12/19 03:28:16;;;;;;;73.10;23.70;;;;;;;;;;6213753;23;20191;-90
2021/12/19 03:31:21;;;;;;;68.53;22.50;;;;;;;;;;6213001;23;20276;-90
2021/12/19 03:34:27;;;;;;;71.13;21.53;;;;;;;;;;6213527;23;20159;-88
2021/12/19 03:37:32;;;;;;;67.33;21.67;;;;;;;;;;6213455;23;20175;-88
2021/12/19 03:40:43;;;;;;;64.70;23.07;;;;;;;;;;6233923;23;20167;-88
2021/12/19 03:43:48;;;;;;;71.00;21.60;;;;;;;;;;6214459;23;20163;-91
2021/12/19 03:46:53;;;;;;;67.73;22.10;;;;;;;;;;6229767;23;20187;-90
2021/12/19 03:49:59;;;;;;;60.53;21.53;;;;;;;;;;6214786;23;20238;-89
2021/12/19 03:53:04;;;;;;;60.27;21.10;;;;;;;;;;6214073;23;20178;-88
2021/12/19 03:56:11;;;;;;;64.00;22.20;;;;;;;;;;6214047;23;20171;-91
2021/12/19 03:59:16;;;;;;;68.17;22.00;;;;;;;;;;6214397;23;20191;-91
2021/12/19 04:02:26;;;;;;;57.73;20.27;;;;;;;;;;6212736;23;20600;-88
2021/12/19 04:05:31;;;;;;;61.00;19.40;;;;;;;;;;6213845;23;20228;-90
2021/12/19 04:08:35;;;;;;;60.80;20.97;;;;;;;;;;6211732;23;20159;-88
2021/12/19 04:11:42;;;;;;;62.63;20.87;;;;;;;;;;6213530;23;20198;-89
2021/12/19 04:14:47;;;;;;;51.00;17.47;;;;;;;;;;6212755;23;20186;-87
2021/12/19 04:17:52;;;;;;;54.37;18.77;;;;;;;;;;6216168;23;20194;-89
2021/12/19 04:20:58;;;;;;;57.77;19.10;;;;;;;;;;6215019;23;20151;-89
2021/12/19 04:24:02;;;;;;;52.13;17.83;;;;;;;;;;6213500;23;20162;-88
2021/12/19 04:27:09;;;;;;;58.37;18.87;;;;;;;;;;6213437;23;20188;-87
2021/12/19 04:30:16;;;;;;;51.43;17.63;;;;;;;;;;6215744;23;20195;-89
2021/12/19 04:33:24;;;;;;;51.90;17.20;;;;;;;;;;6214796;23;20514;-88
2021/12/19 04:36:34;;;;;;;55.53;18.00;;;;;;;;;;6215440;23;20187;-90
2021/12/19 04:39:51;;;;;;;52.50;17.10;;;;;;;;;;6213935;23;20172;-90
2021/12/19 04:56:46;;;;;;;50.07;16.53;;;;;;;;;;6191684;23;20219;-91
2021/12/19 05:00:00;;;;;;;46.87;16.23;;;;;;;;;;6211520;23;20175;-90
2021/12/19 05:03:15;;;;;;;49.77;17.40;;;;;;;;;;6213263;23;20662;-90
2021/12/19 05:06:34;;;;;;;51.40;16.23;;;;;;;;;;6215794;23;20175;-89
2021/12/19 05:16:28;;;;;;;45.20;14.77;;;;;;;;;;6211629;23;20164;-88
2021/12/19 05:19:46;;;;;;;46.37;16.30;;;;;;;;;;6211752;23;20175;-88
2021/12/19 05:22:56;;;;;;;48.83;14.67;;;;;;;;;;6212056;23;20173;-90
2021/12/19 05:26:02;;;;;;;41.37;14.00;;;;;;;;;;6214076;23;20219;-90
2021/12/19 05:29:07;;;;;;;39.93;13.67;;;;;;;;;;6209909;23;20240;-89
2021/12/19 05:32:13;;;;;;;44.10;15.33;;;;;;;;;;6210759;23;20174;-91
2021/12/19 05:35:24;;;;;;;41.67;14.57;;;;;;;;;;6209968;23;20190;-92
2021/12/19 05:45:15;;;;;;;44.10;15.10;;;;;;;;;;6214143;23;20187;-90
2021/12/19 05:48:21;;;;;;;41.97;14.70;;;;;;;;;;6211667;23;20175;-88
2021/12/19 05:51:52;;;;;;;48.93;15.00;;;;;;;;;;6210430;23;20191;-88
2021/12/19 05:54:57;;;;;;;43.30;14.27;;;;;;;;;;6210991;23;20163;-90
2021/12/19 05:58:02;;;;;;;40.80;13.00;;;;;;;;;;6213110;23;20175;-90
2021/12/19 06:01:07;;;;;;;42.40;14.07;;;;;;;;;;6212028;23;20246;-90
2021/12/19 06:04:14;;;;;;;41.90;13.87;;;;;;;;;;6211143;23;20179;-86
2021/12/19 06:07:19;;;;;;;37.77;12.93;;;;;;;;;;6211503;23;20210;-90
2021/12/19 06:10:28;;;;;;;35.50;12.33;;;;;;;;;;6212422;23;20199;-88
2021/12/19 06:13:33;;;;;;;39.77;12.13;;;;;;;;;;6212640;23;20240;-89
2021/12/19 06:16:38;;;;;;;36.17;11.53;;;;;;;;;;6211524;23;20239;-89
2021/12/19 06:19:44;;;;;;;33.00;12.00;;;;;;;;;;6209608;23;20614;-90
2021/12/19 06:22:49;;;;;;;33.30;12.03;;;;;;;;;;6211024;23;20171;-87
2021/12/19 06:25:54;;;;;;;36.17;11.80;;;;;;;;;;6210458;23;20167;-89
2021/12/19 06:29:01;;;;;;;32.00;10.93;;;;;;;;;;6210986;23;20182;-89
2021/12/19 06:32:06;;;;;;;26.70;9.87;;;;;;;;;;6211529;23;20245;-88
2021/12/19 06:35:18;;;;;;;25.33;9.40;;;;;;;;;;6212302;23;20151;-88
2021/12/19 06:38:23;;;;;;;26.13;10.17;;;;;;;;;;6212773;23;20175;-87
2021/12/19 06:41:28;;;;;;;30.10;10.50;;;;;;;;;;6210578;23;20167;-89
2021/12/19 06:44:34;;;;;;;25.57;9.83;;;;;;;;;;6212483;23;20203;-88
2021/12/19 06:47:40;;;;;;;25.77;9.27;;;;;;;;;;6212511;23;20171;-88
2021/12/19 06:50:47;;;;;;;23.07;8.70;;;;;;;;;;6211266;23;20203;-90
2021/12/19 06:53:53;;;;;;;22.10;8.50;;;;;;;;;;6211415;23;20220;-89
2021/12/19 06:57:00;;;;;;;17.87;7.07;;;;;;;;;;6214451;23;20222;-87
2021/12/19 07:00:06;;;;;;;19.80;7.83;;;;;;;;;;6215864;23;20238;-90
2021/12/19 07:03:11;;;;;;;16.63;6.70;;;;;;;;;;6214360;23;20223;-88
2021/12/19 07:06:17;;;;;;;17.13;6.57;;;;;;;;;;6214050;23;20163;-88
2021/12/19 07:09:23;;;;;;;15.70;6.23;;;;;;;;;;6214305;23;20163;-90
2021/12/19 07:12:28;;;;;;;15.87;6.30;;;;;;;;;;6197780;23;20202;-88
2021/12/19 07:15:33;;;;;;;16.77;6.43;;;;;;;;;;6211910;23;20654;-87
2021/12/19 07:18:38;;;;;;;16.87;6.47;;;;;;;;;;6212548;23;20261;-87
2021/12/19 07:21:49;;;;;;;15.47;6.77;;;;;;;;;;6216558;23;20227;-88
2021/12/19 07:24:54;;;;;;;18.00;6.73;;;;;;;;;;6218141;23;20492;-88
2021/12/19 07:27:59;;;;;;;18.63;6.83;;;;;;;;;;6216393;23;20242;-91
2021/12/19 07:31:05;;;;;;;18.80;6.73;;;;;;;;;;6216236;23;20334;-89
2021/12/19 07:34:10;;;;;;;18.20;7.17;;;;;;;;;;6216979;23;20182;-87
2021/12/19 07:37:18;;;;;;;18.27;7.37;;;;;;;;;;6214240;23;20182;-88
2021/12/19 07:40:26;;;;;;;17.07;6.93;;;;;;;;;;6211893;23;20687;-89
2021/12/19 07:43:31;;;;;;;18.57;6.57;;;;;;;;;;6210413;23;20175;-91
2021/12/19 07:46:36;;;;;;;14.67;6.00;;;;;;;;;;6211774;23;20261;-89
2021/12/19 07:49:43;;;;;;;17.53;6.57;;;;;;;;;;6210039;23;20155;-89
2021/12/19 07:52:50;;;;;;;15.70;5.67;;;;;;;;;;6213813;23;20168;-88
2021/12/19 07:55:55;;;;;;;17.67;5.93;;;;;;;;;;6213735;23;20175;-89
2021/12/19 07:59:01;;;;;;;13.40;5.60;;;;;;;;;;6213548;23;20167;-89
2021/12/19 08:02:06;;;;;;;11.00;4.43;;;;;;;;;;6212766;23;20191;-89
2021/12/19 08:05:11;;;;;;;16.77;6.27;;;;;;;;;;6212437;23;20179;-87
2021/12/19 08:08:26;;;;;;;13.80;5.70;;;;;;;;;;6216174;23;20175;-88
2021/12/19 08:11:41;;;;;;;15.63;6.37;;;;;;;;;;6216323;23;20246;-87
2021/12/19 08:14:46;;;;;;;16.43;6.07;;;;;;;;;;6219407;23;20151;-87
2021/12/19 08:17:51;;;;;;;14.47;5.63;;;;;;;;;;6219316;23;20190;-87
2021/12/19 08:20:56;;;;;;;15.13;4.90;;;;;;;;;;6218583;23;20249;-89
2021/12/19 08:24:10;;;;;;;19.33;7.03;;;;;;;;;;6213738;23;20176;-90
2021/12/19 08:27:15;;;;;;;13.03;6.20;;;;;;;;;;6212530;23;20172;-87
2021/12/19 08:30:20;;;;;;;17.63;6.60;;;;;;;;;;6211267;23;20167;-88
2021/12/19 08:33:25;;;;;;;15.83;6.13;;;;;;;;;;6214818;23;20595;-88
2021/12/19 08:36:30;;;;;;;14.70;5.53;;;;;;;;;;6212704;23;20172;-88
2021/12/19 08:39:38;;;;;;;15.17;6.13;;;;;;;;;;6233376;23;20238;-89
2021/12/19 08:42:44;;;;;;;11.83;5.53;;;;;;;;;;6200107;23;20195;-87
2021/12/19 08:45:51;;;;;;;13.83;5.40;;;;;;;;;;6215464;23;20494;-89
2021/12/19 08:48:56;;;;;;;15.43;5.10;;;;;;;;;;6217978;23;20155;-89
2021/12/19 08:55:22;;;;;;;11.47;4.67;;;;;;;;;;6215035;23;20182;-90
2021/12/19 08:58:29;;;;;;;10.87;4.77;;;;;;;;;;6216143;23;20162;-89
2021/12/19 09:01:34;;;;;;;12.43;4.80;;;;;;;;;;6213108;23;20450;-87
2021/12/19 09:04:39;;;;;;;11.43;4.63;;;;;;;;;;6214040;23;20155;-90
2021/12/19 09:07:45;;;;;;;12.03;4.73;;;;;;;;;;6212104;23;20164;-88
2021/12/19 09:10:52;;;;;;;11.53;5.17;;;;;;;;;;6214327;23;20163;-88
2021/12/19 09:13:58;;;;;;;13.07;5.03;;;;;;;;;;6213188;23;20167;-87
2021/12/19 09:17:04;;;;;;;12.50;4.63;;;;;;;;;;6213679;23;20191;-90
2021/12/19 09:20:10;;;;;;;11.03;4.37;;;;;;;;;;6214636;23;20222;-88
2021/12/19 09:23:15;;;;;;;11.30;5.10;;;;;;;;;;6212995;23;20175;-91
2021/12/19 09:26:21;;;;;;;10.67;4.20;;;;;;;;;;6212414;23;20322;-86
2021/12/19 09:29:28;;;;;;;9.97;4.37;;;;;;;;;;6213025;23;20171;-89
2021/12/19 09:32:32;;;;;;;11.47;4.40;;;;;;;;;;6213706;23;20202;-89
2021/12/19 09:35:38;;;;;;;9.23;4.63;;;;;;;;;;6211848;23;20166;-90
2021/12/19 09:38:48;;;;;;;8.90;3.53;;;;;;;;;;6213917;23;20299;-88
2021/12/19 09:41:56;;;;;;;9.00;4.20;;;;;;;;;;6213287;23;20162;-89
2021/12/19 09:45:01;;;;;;;9.63;4.07;;;;;;;;;;6213383;23;20163;-88
2021/12/19 09:51:26;;;;;;;10.47;4.90;;;;;;;;;;6212710;23;20194;-89
2021/12/19 09:54:33;;;;;;;11.47;4.83;;;;;;;;;;6231096;23;20223;-89
2021/12/19 10:00:59;;;;;;;13.63;4.73;;;;;;;;;;6215674;23;20163;-91
2021/12/19 10:04:04;;;;;;;15.77;6.00;;;;;;;;;;6213702;23;20317;-87
2021/12/19 10:07:35;;;;;;;14.23;5.30;;;;;;;;;;6211621;23;20229;-87
2021/12/19 10:10:45;;;;;;;13.53;5.47;;;;;;;;;;6214478;23;20175;-87
2021/12/19 10:13:52;;;;;;;16.27;6.53;;;;;;;;;;6214549;23;20171;-87
2021/12/19 10:17:00;;;;;;;9.07;4.73;;;;;;;;;;6216592;23;20257;-88
2021/12/19 10:20:07;;;;;;;9.40;4.80;;;;;;;;;;6211999;23;20179;-90
2021/12/19 10:23:14;;;;;;;14.00;6.13;;;;;;;;;;6212103;23;20634;-89
2021/12/19 10:26:19;;;;;;;19.50;7.00;;;;;;;;;;6210382;23;20167;-90
2021/12/19 10:29:39;;;;;;;12.63;5.53;;;;;;;;;;6214186;23;20223;-88
2021/12/19 10:32:52;;;;;;;12.20;5.90;;;;;;;;;;6213683;23;20199;-87
2021/12/19 10:35:59;;;;;;;11.83;5.20;;;;;;;;;;6212724;23;20163;-89
2021/12/19 10:39:04;;;;;;;13.03;5.80;;;;;;;;;;6211911;23;20167;-87
2021/12/19 10:42:11;;;;;;;9.47;4.80;;;;;;;;;;6215456;23;20214;-89
2021/12/19 10:45:33;;;;;;;12.20;6.00;;;;;;;;;;6215226;23;20171;-90
2021/12/19 10:48:42;;;;;;;12.83;5.73;;;;;;;;;;6212296;23;20171;-89
2021/12/19 10:51:51;;;;;;;13.10;5.37;;;;;;;;;;6213699;23;20313;-89
2021/12/19 10:54:57;;;;;;;13.30;5.83;;;;;;;;;;6215188;23;20179;-87
2021/12/19 10:58:02;;;;;;;13.60;6.00;;;;;;;;;;6216216;23;20164;-88
2021/12/19 11:01:14;;;;;;;15.20;6.80;;;;;;;;;;6213065;23;20174;-90
2021/12/19 11:04:21;;;;;;;13.10;6.03;;;;;;;;;;6231389;23;20216;-89
2021/12/19 11:07:55;;;;;;;14.17;5.63;;;;;;;;;;6210603;23;20167;-89
2021/12/19 11:11:00;;;;;;;15.00;6.17;;;;;;;;;;6211043;23;20248;-88
2021/12/19 11:14:05;;;;;;;19.10;6.63;;;;;;;;;;6210737;23;20175;-89
2021/12/19 11:17:11;;;;;;;16.50;6.50;;;;;;;;;;6210881;23;20234;-87
2021/12/19 11:20:26;;;;;;;16.10;6.57;;;;;;;;;;6212119;23;20246;-89
2021/12/19 11:23:31;;;;;;;20.63;8.53;;;;;;;;;;6210459;23;20180;-87
2021/12/19 11:26:37;;;;;;;16.53;6.57;;;;;;;;;;6210170;23;20223;-87
2021/12/19 11:29:44;;;;;;;15.53;6.53;;;;;;;;;;6210167;23;20167;-90
2021/12/19 11:32:56;;;;;;;18.10;7.67;;;;;;;;;;6210580;23;20191;-89
2021/12/19 11:36:04;;;;;;;16.07;7.10;;;;;;;;;;6191476;23;20167;-88
2021/12/19 11:39:10;;;;;;;20.07;8.17;;;;;;;;;;6209101;23;20179;-88
2021/12/19 11:42:17;;;;;;;17.90;7.97;;;;;;;;;;6211960;23;20236;-89
2021/12/19 11:45:30;;;;;;;16.63;7.37;;;;;;;;;;6213664;23;20171;-88
2021/12/19 11:48:35;;;;;;;15.60;7.47;;;;;;;;;;6213796;23;20231;-90
2021/12/19 11:51:41;;;;;;;15.07;6.83;;;;;;;;;;6213034;23;20238;-91
2021/12/19 11:54:46;;;;;;;18.67;7.70;;;;;;;;;;6211848;23;20211;-88
2021/12/19 11:58:11;;;;;;;17.40;7.37;;;;;;;;;;6212360;23;20159;-87
2021/12/19 12:01:22;;;;;;;16.53;6.70;;;;;;;;;;6214148;23;20197;-89
2021/12/19 12:04:30;;;;;;;12.43;6.40;;;;;;;;;;6214729;23;20175;-87
2021/12/19 12:08:15;;;;;;;13.50;6.73;;;;;;;;;;6216757;23;20211;-87
2021/12/19 12:14:43;;;;;;;14.53;6.90;;;;;;;;;;6213488;23;20172;-91
2021/12/19 12:17:52;;;;;;;12.97;6.43;;;;;;;;;;6214507;23;20190;-89
2021/12/19 12:20:58;;;;;;;14.57;6.23;;;;;;;;;;6213880;23;20163;-90
2021/12/19 12:24:06;;;;;;;16.27;7.03;;;;;;;;;;6215186;23;20175;-91
2021/12/19 12:27:14;;;;;;;13.67;6.10;;;;;;;;;;6214431;23;20180;-89
2021/12/19 12:30:21;;;;;;;13.07;6.17;;;;;;;;;;6211716;23;20175;-88
2021/12/19 12:33:32;;;;;;;14.27;5.93;;;;;;;;;;6215080;23;20213;-88
2021/12/19 12:36:40;;;;;;;16.23;6.93;;;;;;;;;;6216889;23;20179;-91
2021/12/19 12:39:46;;;;;;;15.77;6.80;;;;;;;;;;6217955;23;20171;-88
2021/12/19 12:42:57;;;;;;;13.50;6.23;;;;;;;;;;6217046;23;20175;-89
2021/12/19 12:46:06;;;;;;;17.77;7.23;;;;;;;;;;6217519;23;20219;-89
2021/12/19 12:49:12;;;;;;;16.60;7.00;;;;;;;;;;6218590;23;20163;-87
2021/12/19 12:52:21;;;;;;;15.37;6.73;;;;;;;;;;6216517;23;20207;-90
2021/12/19 12:55:28;;;;;;;15.63;7.47;;;;;;;;;;6217310;23;20219;-89
2021/12/19 12:58:48;;;;;;;15.23;6.90;;;;;;;;;;6215935;23;20162;-90
2021/12/19 13:01:55;;;;;;;19.03;7.70;;;;;;;;;;6216592;23;20168;-87
2021/12/19 13:05:10;;;;;;;19.20;8.70;;;;;;;;;;6214856;23;20167;-89
2021/12/19 13:08:21;;;;;;;16.90;7.90;;;;;;;;;;6215908;23;20179;-90
2021/12/19 13:11:33;;;;;;;16.50;7.20;;;;;;;;;;6214381;23;20162;-89
2021/12/19 13:14:42;;;;;;;18.40;7.70;;;;;;;;;;6215481;23;20171;-89
2021/12/19 13:17:50;;;;;;;18.30;8.43;;;;;;;;;;6218569;23;20186;-89
2021/12/19 13:21:09;;;;;;;18.77;8.73;;;;;;;;;;6219164;23;20214;-89
2021/12/19 13:24:16;;;;;;;19.63;7.83;;;;;;;;;;6218324;23;20167;-89
2021/12/19 13:30:58;;;;;;;20.80;8.63;;;;;;;;;;6219557;23;20179;-87
2021/12/19 13:34:14;;;;;;;17.80;8.03;;;;;;;;;;6218518;23;20528;-88
2021/12/19 13:37:23;;;;;;;19.80;8.30;;;;;;;;;;6195047;23;20180;-88
2021/12/19 23:08:53;;;;;;;30.27;12.17;;;;;;;;;;6230596;22;20199;-92
2021/12/19 23:12:07;;;;;;;28.40;11.27;;;;;;;;;;6216121;23;20235;-90
2021/12/19 23:15:16;;;;;;;33.80;12.63;;;;;;;;;;6215685;23;20191;-89
2021/12/19 23:18:21;;;;;;;32.57;12.23;;;;;;;;;;6216642;23;20155;-90
2021/12/19 23:24:48;;;;;;;31.07;11.60;;;;;;;;;;6218587;23;20195;-92
2021/12/19 23:31:14;;;;;;;32.63;13.07;;;;;;;;;;6217217;23;20235;-90
2021/12/19 23:34:20;;;;;;;34.00;12.57;;;;;;;;;;6217886;23;20219;-88
2021/12/19 23:37:33;;;;;;;29.03;11.80;;;;;;;;;;6218726;23;20147;-91
2021/12/19 23:40:56;;;;;;;35.33;13.07;;;;;;;;;;6219328;23;20174;-89
2021/12/19 23:47:28;;;;;;;34.43;12.97;;;;;;;;;;6217095;23;20608;-92
2021/12/19 23:50:37;;;;;;;35.50;13.13;;;;;;;;;;6220301;23;20482;-92
2021/12/19 23:57:04;;;;;;;35.23;13.07;;;;;;;;;;6237618;23;20184;-91
